CST,Max TemperatureF,Mean TemperatureF,Min TemperatureF,Max Dew PointF,MeanDew PointF,Min DewpointF,Max Humidity, Mean Humidity, Min Humidity, Max Sea Level PressureIn, Mean Sea Level PressureIn, Min Sea Level PressureIn, Max VisibilityMiles, Mean VisibilityMiles, Min VisibilityMiles, Max Wind SpeedMPH, Mean Wind SpeedMPH, Max Gust SpeedMPH,PrecipitationIn, CloudCover, Events, WindDirDegrees
2012-11-1,39,34,28,34,24,19,87,68,49,30.10,30.01,29.92,10,10,10,17,13,24,0.00,8,,340
2012-11-2,35,28,21,23,21,18,86,71,56,30.20,30.14,30.08,10,10,10,9,5,16,0.00,2,,15
2012-11-3,37,32,28,27,25,21,93,80,65,30.25,30.22,30.19,10,9,1,7,3,,0.00,7,,112
2012-11-4,37,28,19,25,22,18,100,76,56,30.25,30.23,30.19,10,10,3,8,3,,0.00,2,,103
2012-11-5,37,32,28,34,26,21,93,77,65,30.25,30.11,29.82,10,9,3,13,5,16,0.00,8,,143
2012-11-6,37,35,33,34,32,30,93,88,81,29.96,29.83,29.72,10,8,2,14,10,20,0.01,8,,307
2012-11-7,39,36,33,32,31,30,93,76,70,30.04,30.00,29.94,10,10,10,14,5,18,0.00,6,,159
2012-11-8,44,40,35,34,32,28,87,78,61,30.10,29.96,29.86,10,10,10,17,11,22,0.00,6,,251
2012-11-9,35,34,32,30,28,25,81,77,70,30.15,30.11,30.04,10,10,10,12,8,22,0.00,8,,58
2012-11-10,44,38,32,43,35,28,100,91,81,30.04,29.72,29.44,10,6,1,13,9,26,0.31,8,Thunderstorm,112
2012-11-11,48,34,19,46,25,10,100,80,63,29.76,29.64,29.42,10,9,1,15,9,22,0.00,8,,252
2012-11-12,21,19,17,16,13,10,86,77,73,30.17,29.91,29.75,10,7,2,16,11,23,0.00,8,,266
2012-11-13,33,24,15,23,18,12,86,74,56,30.25,30.22,30.18,10,10,10,13,6,16,0.00,4,,187
2012-11-14,44,36,28,28,26,21,93,71,49,30.23,30.16,30.07,10,10,8,12,6,,0.00,4,,169
2012-11-15,39,29,17,28,17,5,86,60,28,30.46,30.25,30.05,10,10,10,20,10,28,0.00,2,,302
2012-11-16,37,24,12,18,13,9,92,61,36,30.47,30.37,30.24,10,10,10,14,5,20,0.00,0,,150
2012-11-17,48,38,28,34,29,18,81,66,57,30.24,30.16,30.14,10,10,10,17,11,22,0.00,1,,157
2012-11-18,51,46,41,34,31,28,66,57,44,30.14,30.07,30.01,10,10,10,20,11,28,0.00,2,,153
2012-11-19,53,43,30,36,32,27,87,66,51,30.09,30.02,29.98,10,10,5,13,9,18,0.00,2,,201
2012-11-20,41,32,24,30,26,21,100,83,61,30.16,30.08,29.96,10,6,0,10,5,,0.00,2,,169
2012-11-21,51,38,26,34,30,25,93,73,50,29.96,29.83,29.58,10,10,9,12,5,,0.00,0,,145
2012-11-22,44,32,21,37,28,16,93,83,70,29.87,29.67,29.52,10,7,2,29,10,38,0.01,5,,282
2012-11-23,19,14,10,16,10,7,86,76,63,30.32,30.20,29.88,10,8,2,31,22,41,0.00,7,,318
2012-11-24,19,12,6,16,9,3,93,81,68,30.29,30.02,29.77,10,9,1,14,7,20,0.00,7,,165
2012-11-25,23,14,6,19,13,1,93,78,62,30.14,29.91,29.76,10,9,3,21,11,26,0.00,7,,305
2012-11-26,15,8,0,10,2,-4,92,75,62,30.32,30.25,30.15,10,10,6,14,9,,0.00,3,,277
2012-11-27,24,20,15,19,14,9,86,76,63,30.18,30.10,30.04,10,8,1,16,8,17,0.00,8,,262
2012-11-28,28,20,12,21,15,7,93,79,64,30.24,30.14,30.03,10,10,4,15,7,20,0.00,5,,242
2012-11-29,23,20,17,21,14,10,100,81,68,30.21,30.16,30.08,10,9,0,9,4,,0.00,7,,47
2012-11-30,28,24,19,27,21,16,93,85,74,30.20,30.12,29.99,10,10,5,13,6,18,0.00,8,,133